Time;durP1;ratioP1;P1;durP2;ratioP2;P2;SDS_P1;SDS_P2;PMS_P1;PMS_P2;Temp;Humidity;BMP_temperature;BMP_pressure;BME280_temperature;BME280_humidity;BME280_pressure;Samples;Min_cycle;Max_cycle;Signal;HPM_P1;HPM_P2
2021/01/09 00:01:57;;;;;;;19.10;14.03;;;;;;;;;;5037445;28;20190;-67
2021/01/09 00:04:23;;;;;;;22.50;13.77;;;;;;;;;;5030902;28;22742;-67
2021/01/09 00:06:49;;;;;;;21.98;14.13;;;;;;;;;;5030589;28;20231;-67
2021/01/09 00:09:14;;;;;;;21.73;14.03;;;;;;;;;;5031577;28;20616;-67
2021/01/09 00:11:39;;;;;;;22.00;14.80;;;;;;;;;;5014660;28;20174;-67
2021/01/09 00:14:04;;;;;;;22.27;14.73;;;;;;;;;;5040523;28;20186;-67
2021/01/09 00:16:29;;;;;;;23.40;16.00;;;;;;;;;;5031063;28;20186;-67
2021/01/09 00:18:54;;;;;;;22.43;15.13;;;;;;;;;;5031713;28;20224;-67
2021/01/09 00:21:20;;;;;;;23.63;16.27;;;;;;;;;;5032830;28;20385;-67
2021/01/09 00:23:45;;;;;;;22.63;15.40;;;;;;;;;;5037483;28;20668;-67
2021/01/09 00:26:10;;;;;;;23.43;16.00;;;;;;;;;;5035563;28;20240;-67
2021/01/09 00:28:35;;;;;;;23.87;15.47;;;;;;;;;;5031739;28;20185;-68
2021/01/09 00:31:01;;;;;;;24.87;15.77;;;;;;;;;;5031587;28;20227;-67
2021/01/09 00:33:26;;;;;;;24.43;15.90;;;;;;;;;;5029366;28;20572;-67
2021/01/09 00:35:53;;;;;;;20.97;13.77;;;;;;;;;;5030498;28;21088;-67
2021/01/09 00:38:18;;;;;;;24.90;15.27;;;;;;;;;;5037521;28;21022;-66
2021/01/09 00:40:43;;;;;;;20.77;14.50;;;;;;;;;;5032462;28;20261;-67
2021/01/09 00:43:09;;;;;;;23.30;15.13;;;;;;;;;;5019472;28;20251;-66
2021/01/09 00:45:34;;;;;;;24.13;14.20;;;;;;;;;;5037048;28;20500;-67
2021/01/09 00:47:59;;;;;;;26.37;14.43;;;;;;;;;;5032414;28;20291;-67
2021/01/09 00:50:24;;;;;;;20.80;14.53;;;;;;;;;;5039051;28;20181;-67
2021/01/09 00:52:49;;;;;;;24.73;15.20;;;;;;;;;;5016679;28;20198;-67
2021/01/09 00:55:14;;;;;;;24.50;13.83;;;;;;;;;;5033106;28;20216;-67
2021/01/09 00:57:40;;;;;;;23.30;15.00;;;;;;;;;;5052384;28;20178;-67
2021/01/09 01:00:06;;;;;;;24.27;14.67;;;;;;;;;;5042893;28;20177;-67
2021/01/09 01:02:31;;;;;;;19.73;13.50;;;;;;;;;;5031842;28;20962;-67
2021/01/09 01:04:56;;;;;;;21.47;14.57;;;;;;;;;;5031758;28;20181;-67
2021/01/09 01:07:22;;;;;;;21.23;14.53;;;;;;;;;;5034364;28;20173;-67
2021/01/09 01:09:47;;;;;;;21.23;14.10;;;;;;;;;;5016333;28;20919;-67
2021/01/09 01:12:12;;;;;;;22.33;13.50;;;;;;;;;;5030640;28;20281;-67
2021/01/09 01:14:37;;;;;;;22.10;14.93;;;;;;;;;;5016173;28;20561;-67
2021/01/09 01:17:03;;;;;;;22.07;12.97;;;;;;;;;;5031502;28;20750;-67
2021/01/09 01:19:28;;;;;;;25.50;14.00;;;;;;;;;;5031630;28;20199;-67
2021/01/09 01:21:53;;;;;;;25.23;14.77;;;;;;;;;;5030141;28;20216;-67
2021/01/09 01:24:19;;;;;;;20.73;14.00;;;;;;;;;;5028150;28;20740;-67
2021/01/09 01:26:44;;;;;;;23.60;14.60;;;;;;;;;;5019933;28;20221;-67
2021/01/09 01:29:09;;;;;;;22.53;14.13;;;;;;;;;;5036538;28;20181;-66
2021/01/09 01:31:35;;;;;;;25.33;14.47;;;;;;;;;;5029055;28;20170;-67
2021/01/09 01:34:00;;;;;;;21.67;14.50;;;;;;;;;;5030887;28;20230;-67
2021/01/09 01:36:25;;;;;;;26.10;14.73;;;;;;;;;;5019749;28;20676;-67
2021/01/09 01:38:50;;;;;;;21.23;14.83;;;;;;;;;;5039116;28;20712;-67
2021/01/09 01:41:15;;;;;;;23.20;14.30;;;;;;;;;;5032115;28;20181;-67
2021/01/09 01:43:42;;;;;;;23.70;14.10;;;;;;;;;;5027691;28;20197;-67
2021/01/09 01:46:08;;;;;;;22.93;14.97;;;;;;;;;;5030505;28;20216;-67
2021/01/09 01:48:34;;;;;;;24.27;15.20;;;;;;;;;;5028965;28;20185;-67
2021/01/09 01:51:00;;;;;;;21.47;14.13;;;;;;;;;;5030088;28;20670;-67
2021/01/09 01:53:28;;;;;;;23.47;13.47;;;;;;;;;;5027205;28;20201;-67
2021/01/09 01:55:54;;;;;;;21.33;14.13;;;;;;;;;;5035949;28;20264;-67
2021/01/09 01:58:19;;;;;;;20.67;13.77;;;;;;;;;;5028455;28;20187;-67
2021/01/09 02:00:48;;;;;;;21.50;13.57;;;;;;;;;;5036090;28;20596;-67
2021/01/09 02:03:17;;;;;;;22.10;13.23;;;;;;;;;;5029016;28;20197;-67
2021/01/09 02:05:47;;;;;;;23.07;13.80;;;;;;;;;;5035261;28;20210;-67
2021/01/09 02:08:13;;;;;;;22.57;13.57;;;;;;;;;;5032350;28;20189;-67
2021/01/09 02:10:40;;;;;;;21.67;13.30;;;;;;;;;;5033180;28;20188;-67
2021/01/09 02:13:10;;;;;;;18.33;12.37;;;;;;;;;;5034050;28;20239;-67
2021/01/09 02:15:36;;;;;;;21.70;12.33;;;;;;;;;;5019266;28;20819;-67
2021/01/09 02:18:02;;;;;;;18.87;12.43;;;;;;;;;;5030800;28;20201;-67
2021/01/09 02:20:28;;;;;;;17.20;11.90;;;;;;;;;;5029089;28;20182;-67
2021/01/09 02:22:54;;;;;;;19.27;11.93;;;;;;;;;;5029185;28;20316;-67
2021/01/09 02:25:20;;;;;;;18.57;11.93;;;;;;;;;;5030788;28;20214;-67
2021/01/09 02:27:45;;;;;;;19.43;11.80;;;;;;;;;;5013565;28;20185;-67
2021/01/09 02:30:18;;;;;;;18.00;11.93;;;;;;;;;;5029032;28;20194;-67
2021/01/09 02:32:46;;;;;;;18.83;11.97;;;;;;;;;;4995984;28;20259;-67
2021/01/09 02:35:14;;;;;;;17.27;11.87;;;;;;;;;;5030753;28;20373;-67
2021/01/09 02:37:39;;;;;;;21.13;13.73;;;;;;;;;;5029698;28;20174;-67
2021/01/09 02:40:05;;;;;;;15.87;11.00;;;;;;;;;;5014438;28;20185;-67
2021/01/09 02:42:31;;;;;;;19.80;12.03;;;;;;;;;;5032217;28;20216;-67
2021/01/09 02:44:56;;;;;;;17.63;11.67;;;;;;;;;;5029976;28;21160;-67
2021/01/09 02:47:22;;;;;;;18.47;12.73;;;;;;;;;;5027306;28;20185;-67
2021/01/09 02:49:47;;;;;;;19.80;12.77;;;;;;;;;;5037890;28;20178;-67
2021/01/09 02:52:12;;;;;;;19.83;13.25;;;;;;;;;;5029240;28;20579;-67
2021/01/09 02:54:37;;;;;;;19.57;13.23;;;;;;;;;;5032841;28;20267;-67
2021/01/09 02:57:03;;;;;;;20.20;12.73;;;;;;;;;;5027019;28;20207;-67
2021/01/09 02:59:28;;;;;;;19.93;12.87;;;;;;;;;;5011102;28;20304;-67
2021/01/09 03:01:53;;;;;;;20.33;12.00;;;;;;;;;;5029329;28;20178;-67
2021/01/09 03:04:19;;;;;;;21.00;12.77;;;;;;;;;;5033148;28;20671;-66
2021/01/09 03:06:44;;;;;;;18.17;12.43;;;;;;;;;;5029141;28;20237;-67
2021/01/09 03:09:11;;;;;;;20.87;12.80;;;;;;;;;;5016945;28;20244;-66
2021/01/09 03:11:36;;;;;;;15.60;11.10;;;;;;;;;;5028704;28;20879;-67
2021/01/09 03:14:01;;;;;;;19.37;11.97;;;;;;;;;;5036815;28;20201;-67
2021/01/09 03:16:26;;;;;;;20.30;12.20;;;;;;;;;;5028120;28;20224;-67
2021/01/09 03:18:52;;;;;;;19.17;12.97;;;;;;;;;;5028160;28;20564;-67
2021/01/09 03:21:17;;;;;;;21.35;12.52;;;;;;;;;;5022221;28;20186;-67
2021/01/09 03:23:42;;;;;;;20.33;12.53;;;;;;;;;;5027182;28;20218;-67
2021/01/09 03:26:07;;;;;;;20.17;13.00;;;;;;;;;;5028194;28;20200;-66
2021/01/09 03:28:32;;;;;;;20.83;13.03;;;;;;;;;;5029437;28;20297;-67
2021/01/09 03:30:57;;;;;;;21.73;12.93;;;;;;;;;;5033169;28;20534;-66
2021/01/09 03:33:23;;;;;;;15.63;12.20;;;;;;;;;;5028509;28;20701;-67
2021/01/09 03:35:48;;;;;;;18.53;12.23;;;;;;;;;;5034337;28;20190;-67
2021/01/09 03:38:13;;;;;;;17.67;12.27;;;;;;;;;;5030068;28;20609;-67
2021/01/09 03:40:38;;;;;;;19.43;12.00;;;;;;;;;;5031196;28;20293;-67
2021/01/09 03:43:03;;;;;;;17.80;12.33;;;;;;;;;;5028196;28;20644;-67
2021/01/09 03:45:29;;;;;;;17.97;11.63;;;;;;;;;;5031800;28;20262;-67
2021/01/09 03:47:54;;;;;;;18.27;12.33;;;;;;;;;;5030038;28;20182;-67
2021/01/09 03:50:19;;;;;;;18.03;12.30;;;;;;;;;;5027849;28;20207;-67
2021/01/09 03:52:44;;;;;;;18.33;11.57;;;;;;;;;;5029176;28;20681;-66
2021/01/09 03:55:10;;;;;;;19.63;12.47;;;;;;;;;;5029131;28;20182;-67
2021/01/09 03:57:35;;;;;;;16.97;10.87;;;;;;;;;;5029012;28;20185;-67
2021/01/09 04:00:00;;;;;;;18.70;12.37;;;;;;;;;;5031369;28;20194;-67
2021/01/09 04:02:25;;;;;;;17.80;11.20;;;;;;;;;;5032118;28;20198;-67
2021/01/09 04:04:51;;;;;;;18.13;11.60;;;;;;;;;;5032336;28;20182;-67
2021/01/09 04:07:16;;;;;;;17.27;11.40;;;;;;;;;;5027012;28;20208;-67
2021/01/09 04:09:41;;;;;;;15.10;10.43;;;;;;;;;;5028482;28;20205;-66
2021/01/09 04:12:06;;;;;;;16.93;10.47;;;;;;;;;;5028408;28;20611;-66
2021/01/09 04:14:31;;;;;;;17.73;11.17;;;;;;;;;;5034449;28;20185;-67
2021/01/09 04:16:57;;;;;;;17.23;10.83;;;;;;;;;;5030702;28;20181;-67
2021/01/09 04:19:22;;;;;;;18.60;10.47;;;;;;;;;;5027635;28;20536;-67
2021/01/09 04:21:52;;;;;;;14.67;10.47;;;;;;;;;;5029483;28;20178;-67
2021/01/09 04:24:17;;;;;;;15.83;11.00;;;;;;;;;;5027703;28;20185;-67
2021/01/09 04:26:42;;;;;;;16.40;10.93;;;;;;;;;;5029837;28;20205;-66
2021/01/09 04:29:08;;;;;;;19.03;12.27;;;;;;;;;;5035050;28;20185;-66
2021/01/09 04:31:33;;;;;;;13.47;10.17;;;;;;;;;;5034622;28;20245;-67
2021/01/09 04:33:58;;;;;;;15.27;10.07;;;;;;;;;;5030774;28;20266;-66
2021/01/09 04:36:23;;;;;;;17.30;10.90;;;;;;;;;;5031028;28;20186;-67
2021/01/09 04:38:48;;;;;;;14.17;9.40;;;;;;;;;;5037523;28;20184;-67
2021/01/09 04:41:13;;;;;;;12.40;9.50;;;;;;;;;;5035853;28;20702;-67
2021/01/09 04:43:39;;;;;;;13.27;9.23;;;;;;;;;;5031026;28;20209;-67
2021/01/09 04:46:05;;;;;;;15.40;9.33;;;;;;;;;;5030804;28;20213;-67
2021/01/09 04:48:30;;;;;;;14.77;9.93;;;;;;;;;;5030562;28;20235;-69
2021/01/09 04:50:56;;;;;;;15.50;9.00;;;;;;;;;;5031890;28;20197;-67
2021/01/09 04:53:21;;;;;;;15.70;9.17;;;;;;;;;;5029807;28;20205;-66
2021/01/09 04:55:47;;;;;;;16.03;9.30;;;;;;;;;;5035134;28;20181;-67
2021/01/09 04:58:12;;;;;;;15.23;9.00;;;;;;;;;;5021177;28;20181;-67
2021/01/09 05:00:37;;;;;;;10.60;8.30;;;;;;;;;;5032813;28;20181;-66
2021/01/09 05:03:03;;;;;;;12.00;9.87;;;;;;;;;;5032029;28;20708;-67
2021/01/09 05:05:28;;;;;;;11.20;8.63;;;;;;;;;;5029937;28;20702;-67
2021/01/09 05:07:53;;;;;;;13.03;8.67;;;;;;;;;;5033575;28;20182;-66
2021/01/09 05:10:18;;;;;;;11.50;8.30;;;;;;;;;;5034328;28;20582;-66
2021/01/09 05:12:44;;;;;;;13.73;9.23;;;;;;;;;;5022650;28;20927;-67
2021/01/09 05:15:09;;;;;;;12.00;9.07;;;;;;;;;;5018024;28;20186;-66
2021/01/09 05:17:34;;;;;;;13.70;8.60;;;;;;;;;;5030791;28;20220;-67
2021/01/09 05:20:00;;;;;;;13.27;8.30;;;;;;;;;;5014787;28;20880;-67
2021/01/09 05:22:26;;;;;;;10.00;7.87;;;;;;;;;;5016328;28;20227;-67
2021/01/09 05:24:52;;;;;;;9.80;8.00;;;;;;;;;;5030742;28;20259;-66
2021/01/09 05:27:18;;;;;;;14.20;8.80;;;;;;;;;;5014377;28;21963;-67
2021/01/09 05:29:48;;;;;;;12.50;8.60;;;;;;;;;;5016270;28;20592;-66
2021/01/09 05:32:15;;;;;;;10.67;8.20;;;;;;;;;;5029847;28;20202;-66
2021/01/09 05:34:43;;;;;;;11.67;8.80;;;;;;;;;;5029203;28;20683;-66
2021/01/09 05:37:16;;;;;;;12.33;8.67;;;;;;;;;;5013548;28;20312;-68
2021/01/09 05:39:51;;;;;;;10.50;8.77;;;;;;;;;;5030563;28;20181;-67
2021/01/09 05:42:19;;;;;;;10.87;9.07;;;;;;;;;;5011140;28;20266;-68
2021/01/09 05:44:45;;;;;;;13.63;9.07;;;;;;;;;;5033044;28;20198;-68
2021/01/09 05:47:10;;;;;;;11.23;8.70;;;;;;;;;;5042475;28;20678;-68
2021/01/09 05:49:40;;;;;;;12.73;8.93;;;;;;;;;;5046104;28;20184;-68
2021/01/09 05:52:05;;;;;;;12.67;8.23;;;;;;;;;;5033254;28;20169;-68
2021/01/09 05:54:34;;;;;;;11.97;8.77;;;;;;;;;;5037610;28;20253;-68
2021/01/09 05:57:00;;;;;;;11.70;8.93;;;;;;;;;;5028585;28;20284;-68
2021/01/09 05:59:30;;;;;;;15.33;9.40;;;;;;;;;;5031907;28;20862;-68
2021/01/09 06:01:57;;;;;;;12.10;9.07;;;;;;;;;;5030295;28;20655;-68
2021/01/09 06:04:25;;;;;;;15.33;9.23;;;;;;;;;;5031754;28;20178;-68
2021/01/09 06:07:09;;;;;;;12.37;9.30;;;;;;;;;;5033921;28;20232;-68
2021/01/09 06:09:38;;;;;;;10.90;8.30;;;;;;;;;;5039787;28;20592;-68
2021/01/09 06:12:05;;;;;;;12.23;9.33;;;;;;;;;;5034995;28;20181;-68
2021/01/09 06:14:32;;;;;;;14.33;8.43;;;;;;;;;;5036282;28;20173;-67
2021/01/09 06:16:58;;;;;;;11.20;8.73;;;;;;;;;;5031934;28;20196;-68
2021/01/09 06:19:24;;;;;;;14.93;9.53;;;;;;;;;;5035707;28;20335;-68
2021/01/09 06:21:50;;;;;;;13.73;9.77;;;;;;;;;;5030216;28;20613;-67
2021/01/09 06:24:17;;;;;;;13.37;9.23;;;;;;;;;;5028749;28;20185;-68
2021/01/09 06:26:43;;;;;;;12.27;8.90;;;;;;;;;;5029806;28;20259;-68
2021/01/09 06:29:19;;;;;;;12.43;8.77;;;;;;;;;;5030785;28;20539;-68
2021/01/09 06:31:50;;;;;;;12.40;8.23;;;;;;;;;;5040901;28;20517;-68
2021/01/09 06:34:16;;;;;;;12.50;9.03;;;;;;;;;;5031823;28;20257;-68
2021/01/09 06:36:41;;;;;;;12.23;8.40;;;;;;;;;;5030525;28;20182;-68
2021/01/09 06:39:06;;;;;;;12.97;8.60;;;;;;;;;;5020565;28;20177;-68
2021/01/09 06:41:32;;;;;;;13.77;8.97;;;;;;;;;;5028457;28;20191;-68
2021/01/09 06:44:01;;;;;;;11.80;9.37;;;;;;;;;;5029966;28;20285;-67
2021/01/09 06:46:27;;;;;;;15.07;9.47;;;;;;;;;;5014436;28;20197;-68
2021/01/09 06:48:53;;;;;;;10.87;8.10;;;;;;;;;;5033713;28;20287;-68
2021/01/09 06:51:41;;;;;;;11.27;8.73;;;;;;;;;;5029354;28;20178;-68
2021/01/09 06:54:15;;;;;;;12.33;9.10;;;;;;;;;;5016986;28;20212;-68
2021/01/09 06:56:42;;;;;;;12.57;9.10;;;;;;;;;;5028948;28;20187;-68
2021/01/09 06:59:07;;;;;;;13.30;9.20;;;;;;;;;;5029601;28;20311;-68
2021/01/09 07:01:36;;;;;;;14.37;8.57;;;;;;;;;;5021295;28;20184;-68
2021/01/09 07:04:01;;;;;;;12.70;9.17;;;;;;;;;;5027485;28;20327;-67
2021/01/09 07:06:45;;;;;;;16.97;10.40;;;;;;;;;;5026451;28;20206;-68
2021/01/09 07:09:10;;;;;;;13.20;8.70;;;;;;;;;;5032543;28;20184;-68
2021/01/09 07:11:35;;;;;;;12.70;9.43;;;;;;;;;;5026719;28;20185;-68
2021/01/09 07:14:14;;;;;;;13.77;9.40;;;;;;;;;;5028928;28;20198;-67
2021/01/09 07:16:40;;;;;;;12.63;9.17;;;;;;;;;;5028614;28;20185;-68
2021/01/09 07:19:09;;;;;;;12.13;9.43;;;;;;;;;;5029416;28;20192;-68
2021/01/09 07:21:35;;;;;;;15.60;9.57;;;;;;;;;;5026192;28;20644;-68
2021/01/09 07:24:01;;;;;;;11.73;8.60;;;;;;;;;;5010721;28;20235;-68
2021/01/09 07:26:27;;;;;;;12.17;8.90;;;;;;;;;;5031136;28;20205;-68
2021/01/09 07:28:52;;;;;;;13.37;8.80;;;;;;;;;;5027997;28;20228;-68
2021/01/09 07:31:22;;;;;;;11.47;8.60;;;;;;;;;;5027177;28;20269;-68
2021/01/09 07:33:47;;;;;;;13.53;8.93;;;;;;;;;;5032903;28;20258;-68
2021/01/09 07:36:13;;;;;;;11.60;8.20;;;;;;;;;;5030063;28;20197;-67
2021/01/09 07:38:45;;;;;;;13.13;8.97;;;;;;;;;;5033733;28;20181;-68
2021/01/09 07:41:14;;;;;;;13.97;8.47;;;;;;;;;;5027270;28;21036;-68
2021/01/09 07:43:41;;;;;;;12.37;8.87;;;;;;;;;;5028341;28;20753;-68
2021/01/09 07:46:24;;;;;;;12.47;8.33;;;;;;;;;;5027593;28;20284;-68
2021/01/09 07:48:50;;;;;;;12.63;8.50;;;;;;;;;;5028248;28;20186;-68
2021/01/09 07:51:16;;;;;;;14.83;8.30;;;;;;;;;;5031123;28;20197;-67
2021/01/09 07:53:45;;;;;;;11.43;8.77;;;;;;;;;;5033405;28;20233;-68
2021/01/09 07:56:10;;;;;;;12.97;8.17;;;;;;;;;;5029374;28;20269;-68
2021/01/09 07:58:45;;;;;;;12.63;8.23;;;;;;;;;;5027837;28;20265;-67
2021/01/09 08:01:10;;;;;;;13.37;9.00;;;;;;;;;;5036652;28;20178;-67
2021/01/09 08:03:36;;;;;;;11.73;8.13;;;;;;;;;;5015680;28;20209;-68
2021/01/09 08:06:02;;;;;;;13.03;8.20;;;;;;;;;;5037952;28;20213;-67
2021/01/09 08:08:28;;;;;;;14.67;8.40;;;;;;;;;;5035664;28;20235;-67
2021/01/09 08:10:53;;;;;;;13.47;8.13;;;;;;;;;;5031608;28;20221;-68
2021/01/09 08:13:21;;;;;;;11.23;8.47;;;;;;;;;;5036476;28;20189;-68
2021/01/09 08:15:46;;;;;;;11.20;7.80;;;;;;;;;;5022547;28;20284;-68
2021/01/09 08:18:12;;;;;;;11.77;7.30;;;;;;;;;;5032685;28;20188;-68
2021/01/09 08:20:37;;;;;;;12.77;9.20;;;;;;;;;;5036439;28;20232;-68
2021/01/09 08:23:03;;;;;;;13.33;9.00;;;;;;;;;;5032742;28;20274;-67
2021/01/09 08:25:29;;;;;;;11.40;8.60;;;;;;;;;;5014010;28;20296;-68
2021/01/09 08:27:55;;;;;;;13.40;9.10;;;;;;;;;;5040460;28;20178;-67
2021/01/09 08:30:21;;;;;;;12.80;8.70;;;;;;;;;;5036524;28;20185;-68
2021/01/09 08:32:47;;;;;;;11.60;8.50;;;;;;;;;;5030903;28;20202;-67
2021/01/09 08:35:13;;;;;;;17.70;9.80;;;;;;;;;;5036673;28;20571;-67
2021/01/09 08:37:38;;;;;;;15.10;10.27;;;;;;;;;;5031969;28;20465;-68
2021/01/09 08:40:13;;;;;;;13.30;9.43;;;;;;;;;;5033505;28;20185;-67
2021/01/09 08:42:50;;;;;;;15.90;10.50;;;;;;;;;;5033806;28;20217;-68
2021/01/09 08:45:15;;;;;;;15.20;10.07;;;;;;;;;;5030441;28;20273;-68
2021/01/09 08:47:43;;;;;;;13.43;10.37;;;;;;;;;;5032163;28;20186;-67
2021/01/09 08:50:10;;;;;;;17.50;10.57;;;;;;;;;;5034815;28;20185;-67
2021/01/09 08:52:36;;;;;;;21.63;13.60;;;;;;;;;;5029903;28;20243;-67
2021/01/09 08:55:02;;;;;;;23.13;14.03;;;;;;;;;;5031667;28;20269;-67
2021/01/09 08:57:27;;;;;;;18.83;12.30;;;;;;;;;;5032443;28;20268;-67
2021/01/09 08:59:53;;;;;;;22.63;12.50;;;;;;;;;;5030695;28;20220;-67
2021/01/09 09:02:20;;;;;;;18.17;12.50;;;;;;;;;;5030378;28;20471;-67
2021/01/09 09:04:47;;;;;;;17.70;13.30;;;;;;;;;;5032075;28;20667;-67
2021/01/09 09:07:15;;;;;;;21.97;13.93;;;;;;;;;;5031687;28;21763;-66
2021/01/09 09:09:41;;;;;;;23.43;14.47;;;;;;;;;;5033534;28;20653;-66
2021/01/09 09:12:06;;;;;;;19.50;13.43;;;;;;;;;;5031798;28;20173;-66
2021/01/09 09:14:32;;;;;;;21.63;14.87;;;;;;;;;;5038305;28;20227;-67
2021/01/09 09:16:58;;;;;;;17.23;13.27;;;;;;;;;;5031357;28;20265;-67
2021/01/09 09:19:24;;;;;;;22.33;14.60;;;;;;;;;;5033472;28;20555;-66
2021/01/09 09:21:55;;;;;;;18.63;14.13;;;;;;;;;;5032735;28;20178;-67
2021/01/09 09:24:20;;;;;;;16.57;13.23;;;;;;;;;;5031779;28;20601;-66
2021/01/09 09:26:45;;;;;;;19.30;13.37;;;;;;;;;;5039999;28;20296;-67
2021/01/09 09:29:13;;;;;;;23.60;13.47;;;;;;;;;;5030934;28;20178;-67
2021/01/09 09:31:40;;;;;;;25.23;13.80;;;;;;;;;;5031144;28;20171;-68
2021/01/09 09:34:12;;;;;;;27.63;15.63;;;;;;;;;;5033656;28;20202;-68
2021/01/09 09:36:50;;;;;;;18.77;13.40;;;;;;;;;;5032571;28;20185;-68
2021/01/09 09:39:16;;;;;;;19.63;12.93;;;;;;;;;;5032614;28;20192;-68
2021/01/09 09:41:53;;;;;;;19.23;13.60;;;;;;;;;;5034589;28;20210;-69
2021/01/09 09:44:19;;;;;;;17.77;13.03;;;;;;;;;;5012186;28;20299;-69
2021/01/09 09:46:45;;;;;;;18.97;12.83;;;;;;;;;;5038508;28;20201;-69
2021/01/09 09:49:10;;;;;;;23.20;13.07;;;;;;;;;;5036532;28;20174;-69
2021/01/09 09:51:36;;;;;;;19.53;12.57;;;;;;;;;;5018415;28;20584;-69
2021/01/09 09:54:01;;;;;;;19.30;11.57;;;;;;;;;;5028893;28;21174;-69
2021/01/09 09:56:34;;;;;;;15.37;11.80;;;;;;;;;;5035060;28;20259;-69
2021/01/09 09:59:00;;;;;;;18.17;11.30;;;;;;;;;;5036853;28;20273;-69
2021/01/09 10:01:25;;;;;;;17.53;11.63;;;;;;;;;;5035414;28;20215;-69
2021/01/09 10:03:50;;;;;;;16.80;10.87;;;;;;;;;;5036450;28;20240;-68
2021/01/09 10:06:16;;;;;;;19.63;12.57;;;;;;;;;;5031623;28;20292;-68
2021/01/09 10:08:42;;;;;;;19.43;14.90;;;;;;;;;;5030604;28;20212;-69
2021/01/09 10:11:07;;;;;;;20.17;11.80;;;;;;;;;;5032090;28;20261;-68
2021/01/09 10:13:33;;;;;;;15.83;11.37;;;;;;;;;;5036224;28;20186;-68
2021/01/09 10:15:58;;;;;;;13.67;11.80;;;;;;;;;;5029535;28;20182;-66
2021/01/09 10:18:27;;;;;;;14.73;10.80;;;;;;;;;;5023964;28;20185;-66
2021/01/09 10:20:52;;;;;;;14.33;12.60;;;;;;;;;;5023467;28;20287;-65
2021/01/09 10:23:18;;;;;;;18.63;13.57;;;;;;;;;;5029579;28;20234;-65
2021/01/09 10:25:43;;;;;;;14.67;11.83;;;;;;;;;;5032072;28;20202;-65
2021/01/09 10:28:08;;;;;;;13.07;11.07;;;;;;;;;;5030762;28;20193;-66
2021/01/09 10:30:33;;;;;;;15.47;10.00;;;;;;;;;;5028175;28;20567;-66
2021/01/09 10:32:59;;;;;;;11.27;7.97;;;;;;;;;;5012868;28;20208;-66
2021/01/09 10:35:24;;;;;;;9.67;7.90;;;;;;;;;;5029489;28;20177;-66
2021/01/09 10:37:49;;;;;;;10.17;6.60;;;;;;;;;;5027564;28;20567;-66
2021/01/09 10:40:14;;;;;;;10.60;7.10;;;;;;;;;;5036412;28;20663;-66
2021/01/09 10:42:40;;;;;;;8.90;6.33;;;;;;;;;;5029017;28;20691;-66
2021/01/09 10:45:05;;;;;;;8.43;6.33;;;;;;;;;;5034583;28;20272;-66
2021/01/09 10:47:31;;;;;;;8.53;6.37;;;;;;;;;;5029417;28;20423;-66
2021/01/09 10:49:56;;;;;;;9.37;5.67;;;;;;;;;;5023850;28;20185;-66
2021/01/09 10:52:21;;;;;;;8.90;6.37;;;;;;;;;;5028491;28;20190;-66
2021/01/09 10:54:46;;;;;;;8.17;5.00;;;;;;;;;;5032926;28;20201;-66
2021/01/09 10:57:12;;;;;;;6.50;4.63;;;;;;;;;;5029321;28;20292;-69
2021/01/09 10:59:39;;;;;;;5.80;3.97;;;;;;;;;;5031977;28;20206;-67
2021/01/09 11:02:04;;;;;;;7.60;4.22;;;;;;;;;;5029667;28;20431;-66
2021/01/09 11:04:30;;;;;;;6.97;3.42;;;;;;;;;;5027158;28;20206;-66
2021/01/09 11:06:58;;;;;;;4.10;3.60;;;;;;;;;;5030749;28;20208;-67
2021/01/09 11:09:24;;;;;;;9.00;4.25;;;;;;;;;;5041043;28;20311;-66
2021/01/09 11:11:49;;;;;;;6.78;3.75;;;;;;;;;;5028889;28;20291;-66
2021/01/09 11:14:14;;;;;;;5.75;3.97;;;;;;;;;;5036575;28;20197;-66
2021/01/09 11:16:40;;;;;;;6.55;4.05;;;;;;;;;;5030004;28;20663;-66
2021/01/09 11:19:05;;;;;;;8.17;3.80;;;;;;;;;;5033382;28;20488;-66
2021/01/09 11:21:30;;;;;;;5.50;3.40;;;;;;;;;;5035881;28;20182;-66
2021/01/09 11:23:55;;;;;;;7.20;3.30;;;;;;;;;;5036300;28;20210;-66
2021/01/09 11:26:21;;;;;;;6.97;4.17;;;;;;;;;;5028113;28;20216;-66
2021/01/09 11:28:47;;;;;;;7.87;4.03;;;;;;;;;;5030531;28;20181;-66
2021/01/09 11:31:12;;;;;;;5.50;3.67;;;;;;;;;;5032307;28;20181;-68
2021/01/09 11:33:39;;;;;;;7.97;4.37;;;;;;;;;;5011708;28;20189;-68
2021/01/09 11:36:05;;;;;;;13.87;5.13;;;;;;;;;;5035635;28;20216;-69
2021/01/09 11:38:30;;;;;;;6.07;3.17;;;;;;;;;;5032073;28;20280;-65
2021/01/09 11:40:55;;;;;;;5.90;3.57;;;;;;;;;;5043218;28;20177;-66
2021/01/09 11:43:20;;;;;;;8.30;3.90;;;;;;;;;;5018844;28;20559;-66
2021/01/09 11:45:45;;;;;;;9.80;4.20;;;;;;;;;;5035593;28;20760;-66
2021/01/09 11:48:11;;;;;;;5.70;3.77;;;;;;;;;;5032170;28;20193;-69
2021/01/09 11:50:36;;;;;;;9.73;4.70;;;;;;;;;;5035866;28;20177;-67
2021/01/09 11:53:01;;;;;;;5.50;3.23;;;;;;;;;;5031922;28;20201;-67
2021/01/09 11:55:26;;;;;;;6.40;3.50;;;;;;;;;;5023694;28;20177;-67
2021/01/09 11:57:51;;;;;;;7.63;4.00;;;;;;;;;;5031513;28;20186;-67
2021/01/09 12:00:17;;;;;;;7.80;3.43;;;;;;;;;;5034461;28;20186;-67
2021/01/09 12:02:42;;;;;;;7.57;4.23;;;;;;;;;;5032178;28;20206;-67
2021/01/09 12:05:07;;;;;;;5.87;3.20;;;;;;;;;;5034828;28;20184;-67
2021/01/09 12:07:33;;;;;;;5.63;3.17;;;;;;;;;;5031264;28;20209;-67
2021/01/09 12:09:58;;;;;;;4.17;2.73;;;;;;;;;;5033676;28;20587;-68
2021/01/09 12:12:23;;;;;;;7.47;3.13;;;;;;;;;;5032762;28;20251;-67
2021/01/09 12:14:48;;;;;;;5.17;3.23;;;;;;;;;;5023991;28;20240;-68
2021/01/09 12:17:13;;;;;;;5.40;2.37;;;;;;;;;;5030325;28;20188;-67
2021/01/09 12:19:39;;;;;;;4.60;2.40;;;;;;;;;;5031505;28;20175;-67
2021/01/09 12:22:04;;;;;;;8.13;3.80;;;;;;;;;;5033565;28;22801;-67
2021/01/09 12:24:29;;;;;;;3.47;1.90;;;;;;;;;;5038152;28;20198;-67
2021/01/09 12:26:54;;;;;;;3.97;1.47;;;;;;;;;;5030687;28;20213;-67
2021/01/09 12:29:19;;;;;;;5.30;1.83;;;;;;;;;;5034573;28;20178;-67
2021/01/09 12:31:45;;;;;;;4.60;1.70;;;;;;;;;;5030207;28;20224;-67
2021/01/09 12:34:11;;;;;;;2.53;1.40;;;;;;;;;;5033187;28;20323;-67
2021/01/09 12:36:36;;;;;;;2.80;1.90;;;;;;;;;;5029995;28;20201;-67
2021/01/09 12:39:01;;;;;;;5.43;1.80;;;;;;;;;;5033775;28;20192;-68
2021/01/09 12:41:30;;;;;;;4.63;2.47;;;;;;;;;;5034167;28;20190;-68
2021/01/09 12:43:55;;;;;;;2.67;1.90;;;;;;;;;;5033067;28;20205;-67
2021/01/09 12:46:20;;;;;;;3.63;1.43;;;;;;;;;;5030843;28;20311;-67
2021/01/09 12:48:45;;;;;;;4.20;1.50;;;;;;;;;;5033863;28;20683;-68
2021/01/09 12:51:11;;;;;;;3.10;1.60;;;;;;;;;;5035526;28;20169;-68
2021/01/09 12:53:36;;;;;;;3.13;1.57;;;;;;;;;;5030841;28;20644;-68
2021/01/09 12:56:03;;;;;;;4.73;1.80;;;;;;;;;;5029505;28;20189;-67
2021/01/09 12:58:28;;;;;;;4.17;1.63;;;;;;;;;;5030775;28;20252;-68
2021/01/09 13:00:53;;;;;;;4.72;1.55;;;;;;;;;;5021773;28;20682;-69
2021/01/09 13:03:18;;;;;;;4.40;1.60;;;;;;;;;;5031576;28;20200;-67
2021/01/09 13:05:43;;;;;;;7.00;1.90;;;;;;;;;;5032571;28;20221;-67
2021/01/09 13:08:09;;;;;;;3.33;1.70;;;;;;;;;;5030265;28;20558;-67
2021/01/09 13:10:34;;;;;;;6.40;1.80;;;;;;;;;;5033798;28;20208;-68
2021/01/09 13:12:59;;;;;;;4.53;2.03;;;;;;;;;;5022265;28;20213;-68
2021/01/09 13:15:24;;;;;;;4.70;1.53;;;;;;;;;;5030424;28;20696;-67
2021/01/09 13:17:49;;;;;;;3.67;1.10;;;;;;;;;;5030495;28;20209;-67
2021/01/09 13:20:14;;;;;;;6.30;1.40;;;;;;;;;;5034446;28;20197;-67
2021/01/09 13:22:40;;;;;;;10.77;1.30;;;;;;;;;;5030644;28;20305;-68
2021/01/09 13:25:05;;;;;;;5.03;1.40;;;;;;;;;;5030018;28;20182;-68
2021/01/09 13:27:30;;;;;;;4.80;1.30;;;;;;;;;;5030543;28;20563;-70
2021/01/09 13:29:55;;;;;;;5.90;1.40;;;;;;;;;;5030667;28;20177;-69
2021/01/09 13:32:23;;;;;;;4.60;1.30;;;;;;;;;;5030743;28;20876;-67
2021/01/09 13:34:49;;;;;;;5.17;1.60;;;;;;;;;;5030137;28;20201;-67
2021/01/09 13:37:15;;;;;;;2.93;1.30;;;;;;;;;;5030143;28;20310;-69
2021/01/09 13:39:40;;;;;;;4.87;1.70;;;;;;;;;;5035135;28;20185;-67
2021/01/09 13:42:05;;;;;;;4.60;1.17;;;;;;;;;;5014990;28;20208;-67
2021/01/09 13:44:30;;;;;;;3.93;1.50;;;;;;;;;;5017311;28;20182;-68
2021/01/09 13:46:55;;;;;;;3.63;1.70;;;;;;;;;;5030955;28;20189;-68
2021/01/09 13:49:21;;;;;;;3.27;1.00;;;;;;;;;;5032678;28;20185;-68
2021/01/09 13:51:46;;;;;;;4.10;1.40;;;;;;;;;;5032388;28;20264;-67
2021/01/09 13:54:11;;;;;;;3.70;1.47;;;;;;;;;;5032027;28;20205;-67
2021/01/09 13:56:44;;;;;;;4.00;1.30;;;;;;;;;;5030137;28;20551;-67
2021/01/09 13:59:10;;;;;;;6.30;1.27;;;;;;;;;;5030229;28;20182;-67
2021/01/09 14:01:36;;;;;;;2.60;1.13;;;;;;;;;;5032935;28;20188;-67
2021/01/09 14:04:02;;;;;;;3.57;1.33;;;;;;;;;;5030421;28;20848;-67
2021/01/09 14:06:27;;;;;;;3.67;1.10;;;;;;;;;;5014733;28;20213;-67
2021/01/09 14:08:52;;;;;;;4.57;1.10;;;;;;;;;;5033686;28;20193;-67
2021/01/09 14:11:19;;;;;;;2.10;0.90;;;;;;;;;;5027476;28;20656;-67
2021/01/09 14:13:44;;;;;;;3.70;1.30;;;;;;;;;;5033121;28;20208;-67
2021/01/09 14:16:09;;;;;;;2.88;0.80;;;;;;;;;;5031477;28;20181;-67
2021/01/09 14:18:34;;;;;;;4.40;0.93;;;;;;;;;;5014391;28;20193;-67
2021/01/09 14:20:59;;;;;;;2.97;0.90;;;;;;;;;;5034717;28;20182;-67
2021/01/09 14:23:25;;;;;;;2.50;0.90;;;;;;;;;;5028266;28;20221;-67